Time;durP1;ratioP1;P1;durP2;ratioP2;P2;SDS_P1;SDS_P2;PMS_P1;PMS_P2;Temp;Humidity;BMP_temperature;BMP_pressure;BME280_temperature;BME280_humidity;BME280_pressure;Samples;Min_cycle;Max_cycle;Signal;HPM_P1;HPM_P2
2021/03/31 00:03:13;;;;;;;27.35;21.50;;;;;;;10.16;91.44;97809.88;1854085;76;22584;-85
2021/03/31 00:05:40;;;;;;;29.98;22.37;;;;;;;10.18;91.20;97812.56;1818515;77;21092;-85
2021/03/31 00:08:08;;;;;;;27.52;20.90;;;;;;;10.15;90.90;97815.70;1821192;77;21130;-85
2021/03/31 00:10:51;;;;;;;28.92;20.40;;;;;;;10.22;90.84;97812.89;1813721;77;21116;-85
2021/03/31 00:13:20;;;;;;;27.98;19.62;;;;;;;10.23;90.33;97806.55;1822782;77;21433;-85
2021/03/31 00:15:47;;;;;;;29.00;22.50;;;;;;;10.19;90.11;97804.88;1816047;77;21476;-85
2021/03/31 00:18:17;;;;;;;31.20;21.25;;;;;;;10.16;89.98;97809.88;1814494;77;21616;-85
2021/03/31 00:20:46;;;;;;;27.65;19.62;;;;;;;10.10;89.83;97803.70;1833171;77;21074;-85
2021/03/31 00:23:16;;;;;;;27.93;20.27;;;;;;;10.08;89.99;97802.62;1839762;77;21107;-85
2021/03/31 00:25:43;;;;;;;31.20;22.20;;;;;;;10.14;90.00;97802.70;1823392;77;21109;-84
2021/03/31 00:28:12;;;;;;;29.02;20.32;;;;;;;10.15;89.84;97806.44;1822036;77;21109;-85
2021/03/31 00:30:41;;;;;;;26.35;19.95;;;;;;;10.13;89.59;97807.17;1820520;77;21135;-84
2021/03/31 00:33:09;;;;;;;27.67;20.15;;;;;;;10.07;89.44;97799.70;1844189;77;21071;-85
2021/03/31 00:35:37;;;;;;;27.67;19.32;;;;;;;10.04;89.39;97801.52;1839887;77;21115;-84
2021/03/31 00:38:07;;;;;;;31.20;21.20;;;;;;;10.04;89.33;97793.56;1822080;77;21257;-85
2021/03/31 00:40:50;;;;;;;28.12;20.70;;;;;;;10.07;89.37;97787.77;1825824;77;21495;-85
2021/03/31 00:43:19;;;;;;;25.92;19.75;;;;;;;10.16;89.33;97786.84;1774175;80;21139;-85
2021/03/31 00:45:46;;;;;;;28.05;21.42;;;;;;;10.20;88.96;97784.48;1784087;80;21104;-85
2021/03/31 00:48:15;;;;;;;29.35;20.25;;;;;;;10.10;88.58;97779.85;1771875;80;21473;-84
2021/03/31 00:50:46;;;;;;;27.45;18.40;;;;;;;9.97;88.50;97781.01;1773151;80;21114;-85
2021/03/31 00:53:19;;;;;;;26.07;18.70;;;;;;;9.87;88.58;97774.80;1764160;80;21089;-84
2021/03/31 00:55:47;;;;;;;26.12;18.48;;;;;;;9.87;88.92;97771.62;1767973;80;21150;-85
2021/03/31 00:58:15;;;;;;;28.23;20.05;;;;;;;9.90;88.89;97769.01;1780042;80;21126;-84
2021/03/31 01:00:42;;;;;;;26.12;19.00;;;;;;;9.88;88.78;97763.16;1766821;80;21497;-84
2021/03/31 01:03:10;;;;;;;30.23;21.95;;;;;;;9.77;88.48;97770.95;1752806;81;21520;-85
2021/03/31 01:05:37;;;;;;;30.95;21.50;;;;;;;9.71;88.76;97766.65;1751031;81;21115;-84
2021/03/31 01:08:04;;;;;;;26.93;20.12;;;;;;;9.80;89.30;97767.81;1747805;81;21092;-84
2021/03/31 01:10:39;;;;;;;29.63;20.10;;;;;;;9.78;88.89;97767.27;1750881;81;21084;-84
2021/03/31 01:13:49;;;;;;;30.08;19.40;;;;;;;9.64;88.80;97766.00;1748877;81;21107;-84
2021/03/31 01:16:46;;;;;;;27.80;18.73;;;;;;;9.53;88.84;97761.08;1748608;81;21151;-85
2021/03/31 01:19:39;;;;;;;26.33;18.65;;;;;;;9.43;89.01;97758.80;1746946;81;21217;-85
2021/03/31 01:22:37;;;;;;;31.90;19.80;;;;;;;9.31;89.27;97761.56;1749606;81;21116;-85
2021/03/31 01:25:38;;;;;;;29.15;19.80;;;;;;;9.23;89.61;97754.81;1743062;81;21119;-85
2021/03/31 01:28:30;;;;;;;29.12;20.55;;;;;;;9.21;89.80;97755.58;1755838;81;21111;-85
2021/03/31 01:31:30;;;;;;;29.55;20.77;;;;;;;9.25;90.17;97757.73;1739882;81;21136;-85
2021/03/31 01:34:37;;;;;;;32.53;22.03;;;;;;;9.31;90.18;97756.78;1747060;81;21163;-85
2021/03/31 01:37:18;;;;;;;29.42;20.30;;;;;;;9.36;90.25;97755.53;1756339;81;21120;-85
2021/03/31 01:39:47;;;;;;;28.12;20.75;;;;;;;9.39;90.05;97758.48;1745928;81;21100;-84
2021/03/31 01:42:16;;;;;;;29.85;20.02;;;;;;;9.39;90.19;97759.81;1755382;81;21119;-84
2021/03/31 01:44:45;;;;;;;29.65;20.08;;;;;;;9.55;90.27;97758.71;1753196;81;21594;-84
2021/03/31 01:47:15;;;;;;;31.07;19.35;;;;;;;9.38;89.66;97760.86;1749437;80;21129;-84
2021/03/31 01:49:42;;;;;;;34.88;20.75;;;;;;;9.23;89.94;97756.66;1759044;81;21104;-85
2021/03/31 01:52:12;;;;;;;33.23;20.72;;;;;;;9.20;90.43;97755.83;1759662;81;21182;-84
2021/03/31 01:54:44;;;;;;;30.43;20.92;;;;;;;9.18;90.20;97754.74;1757292;81;21161;-84
2021/03/31 01:57:13;;;;;;;30.02;20.72;;;;;;;9.09;90.14;97755.38;1754026;81;21110;-84
2021/03/31 01:59:42;;;;;;;32.42;21.27;;;;;;;8.92;90.06;97756.17;1751880;81;21096;-84
2021/03/31 02:02:12;;;;;;;29.25;19.45;;;;;;;8.89;90.54;97755.85;1760427;80;21161;-84
2021/03/31 02:04:41;;;;;;;29.60;20.90;;;;;;;9.02;90.89;97756.06;1765490;80;21141;-84
2021/03/31 02:07:10;;;;;;;29.23;19.45;;;;;;;9.21;91.01;97762.72;1755277;80;21133;-84
2021/03/31 02:09:41;;;;;;;28.92;18.62;;;;;;;9.17;90.69;97753.66;1763828;80;21113;-84
2021/03/31 02:12:11;;;;;;;25.97;20.20;;;;;;;9.08;90.83;97754.58;1765245;80;21129;-84
2021/03/31 02:14:43;;;;;;;28.25;19.50;;;;;;;9.11;90.98;97758.05;1778013;80;21483;-84
2021/03/31 02:17:15;;;;;;;27.48;17.75;;;;;;;9.14;90.95;97754.92;1765720;80;21120;-84
2021/03/31 02:19:45;;;;;;;27.70;18.00;;;;;;;9.16;91.07;97750.73;1775211;80;21098;-85
2021/03/31 02:22:17;;;;;;;32.95;21.33;;;;;;;9.07;91.09;97752.17;1776382;80;21512;-85
2021/03/31 02:24:46;;;;;;;38.17;22.42;;;;;;;9.15;91.21;97750.46;1762153;80;21116;-85
2021/03/31 02:27:15;;;;;;;27.22;20.05;;;;;;;9.28;91.06;97755.40;1785076;80;21077;-85
2021/03/31 02:29:48;;;;;;;31.77;21.20;;;;;;;9.29;90.52;97751.73;1772994;80;21481;-85
2021/03/31 02:32:20;;;;;;;27.15;18.55;;;;;;;9.23;90.41;97750.05;1759940;81;21500;-85
2021/03/31 02:34:51;;;;;;;27.62;19.27;;;;;;;9.18;90.41;97755.27;1780266;80;21130;-85
2021/03/31 02:37:20;;;;;;;32.38;20.15;;;;;;;9.20;90.49;97753.17;1752111;80;21110;-85
2021/03/31 02:39:51;;;;;;;31.48;20.57;;;;;;;9.18;90.52;97750.78;1760846;80;21122;-84
2021/03/31 02:42:22;;;;;;;28.40;19.42;;;;;;;9.23;90.66;97752.69;1766079;80;21128;-85
2021/03/31 02:44:53;;;;;;;28.80;20.92;;;;;;;9.34;90.62;97751.00;1770277;80;21583;-85
2021/03/31 02:47:28;;;;;;;29.67;22.13;;;;;;;9.39;90.35;97745.78;1769542;80;21474;-84
2021/03/31 02:49:59;;;;;;;28.23;20.27;;;;;;;9.40;90.07;97748.18;1771842;80;21481;-85
2021/03/31 02:52:28;;;;;;;31.87;21.75;;;;;;;9.43;89.93;97746.89;1779313;80;21151;-85
2021/03/31 02:54:56;;;;;;;28.02;19.37;;;;;;;9.49;89.83;97740.12;1775647;80;21085;-85
2021/03/31 02:57:24;;;;;;;29.40;19.85;;;;;;;9.48;89.40;97747.78;1764692;80;21117;-85
2021/03/31 02:59:51;;;;;;;28.23;20.17;;;;;;;9.41;89.08;97743.16;1773405;80;21122;-85
2021/03/31 03:02:20;;;;;;;26.90;19.30;;;;;;;9.29;89.16;97739.83;1769230;80;21154;-85
2021/03/31 03:04:51;;;;;;;27.70;20.17;;;;;;;9.30;89.54;97736.66;1784442;80;21492;-84
2021/03/31 03:07:18;;;;;;;;;;;;;;;9.34;89.83;97738.58;1755751;80;21125;-85
2021/03/31 03:09:47;;;;;;;27.27;19.82;;;;;;;9.35;89.87;97735.41;1765791;80;20133;-85
2021/03/31 03:12:16;;;;;;;29.10;20.75;;;;;;;9.38;90.03;97741.01;1769616;80;21118;-85
2021/03/31 03:14:50;;;;;;;31.05;21.85;;;;;;;9.41;90.00;97737.87;1741775;80;21520;-85
2021/03/31 03:17:18;;;;;;;29.27;19.82;;;;;;;9.41;89.95;97743.16;1751138;80;21465;-85
2021/03/31 03:19:46;;;;;;;27.05;19.77;;;;;;;9.36;89.89;97736.48;1761005;81;21128;-85
2021/03/31 03:22:15;;;;;;;29.72;21.02;;;;;;;9.35;89.99;97734.88;1773269;80;21093;-85
2021/03/31 03:24:48;;;;;;;29.25;21.33;;;;;;;9.39;90.12;97737.31;1787295;80;21285;-85
2021/03/31 03:27:18;;;;;;;27.85;20.40;;;;;;;9.41;90.00;97737.07;1787367;80;21109;-85
2021/03/31 03:29:51;;;;;;;29.18;20.20;;;;;;;9.40;89.88;97731.50;1774388;80;21120;-85
2021/03/31 03:32:20;;;;;;;29.77;20.65;;;;;;;9.37;89.75;97728.02;1759958;80;21140;-85
2021/03/31 03:34:49;;;;;;;28.90;20.88;;;;;;;9.35;89.91;97730.11;1779698;80;21255;-85
2021/03/31 03:37:19;;;;;;;31.90;22.37;;;;;;;9.36;89.96;97721.93;1773808;80;21505;-85
2021/03/31 03:39:47;;;;;;;29.10;20.87;;;;;;;9.38;90.03;97723.00;1759206;80;21117;-85
2021/03/31 03:42:14;;;;;;;29.12;19.65;;;;;;;9.46;90.01;97723.93;1769661;80;21121;-85
2021/03/31 03:44:42;;;;;;;25.52;19.85;;;;;;;9.40;89.70;97723.04;1763378;81;21129;-85
2021/03/31 03:47:10;;;;;;;26.23;19.55;;;;;;;9.37;89.77;97721.41;1763093;80;21125;-85
2021/03/31 03:49:39;;;;;;;28.67;21.40;;;;;;;9.35;89.69;97728.27;1768123;80;21416;-85
2021/03/31 03:52:08;;;;;;;29.05;21.05;;;;;;;9.33;89.75;97723.74;1773453;80;21125;-85
2021/03/31 03:54:35;;;;;;;30.10;20.88;;;;;;;9.23;89.48;97726.23;1780122;80;21293;-85
2021/03/31 03:57:02;;;;;;;31.30;21.50;;;;;;;9.15;89.50;97726.12;1770490;80;21169;-85
2021/03/31 03:59:30;;;;;;;28.38;21.42;;;;;;;9.15;89.78;97729.30;1765628;80;21140;-85
2021/03/31 04:01:57;;;;;;;30.95;20.35;;;;;;;9.11;89.72;97726.31;1783457;80;21155;-84
2021/03/31 04:04:24;;;;;;;28.23;20.80;;;;;;;9.09;89.78;97723.63;1769520;80;21221;-85
2021/03/31 04:06:51;;;;;;;32.23;22.50;;;;;;;9.05;89.66;97724.64;1777282;80;21120;-85
2021/03/31 04:09:18;;;;;;;30.65;21.05;;;;;;;9.05;89.92;97729.13;1765639;80;21129;-85
2021/03/31 04:11:48;;;;;;;29.48;21.25;;;;;;;9.09;90.16;97726.28;1764430;80;21148;-85
2021/03/31 04:14:16;;;;;;;27.02;20.75;;;;;;;9.14;90.18;97721.05;1761060;80;21093;-85
2021/03/31 04:16:44;;;;;;;29.90;21.10;;;;;;;9.16;90.05;97722.44;1757600;80;21107;-85
2021/03/31 04:19:16;;;;;;;32.10;21.85;;;;;;;9.14;89.79;97718.41;1766137;80;21134;-85
2021/03/31 04:21:43;;;;;;;29.42;21.25;;;;;;;9.11;89.79;97726.31;1757328;80;21125;-85
2021/03/31 04:24:14;;;;;;;31.23;21.37;;;;;;;9.06;89.84;97722.27;1763351;80;21150;-85
2021/03/31 04:26:42;;;;;;;27.62;21.73;;;;;;;9.03;90.11;97716.67;1761239;80;21106;-85
2021/03/31 04:29:12;;;;;;;28.00;21.68;;;;;;;9.10;90.34;97717.30;1739398;81;21556;-85
2021/03/31 04:31:40;;;;;;;29.07;21.62;;;;;;;9.12;90.13;97721.82;1763797;80;21225;-85
2021/03/31 04:34:09;;;;;;;26.73;19.75;;;;;;;9.16;90.10;97713.70;1762370;80;21466;-85
2021/03/31 04:36:36;;;;;;;32.20;22.25;;;;;;;9.28;90.25;97717.03;1759730;80;21124;-85
2021/03/31 04:39:06;;;;;;;31.23;21.35;;;;;;;9.42;90.04;97720.95;1771909;80;21140;-85
2021/03/31 04:41:34;;;;;;;31.68;21.05;;;;;;;9.49;89.61;97717.62;1763409;80;21187;-85
2021/03/31 04:44:04;;;;;;;31.27;21.23;;;;;;;9.61;89.28;97722.02;1767364;80;21152;-85
2021/03/31 04:46:31;;;;;;;32.25;22.37;;;;;;;9.76;88.91;97722.22;1771425;80;21143;-85
2021/03/31 04:48:58;;;;;;;28.42;19.85;;;;;;;9.91;88.37;97717.63;1770058;80;21493;-85
2021/03/31 04:51:25;;;;;;;27.15;19.75;;;;;;;10.14;88.21;97724.02;1763132;80;21515;-86
2021/03/31 04:53:52;;;;;;;32.20;20.50;;;;;;;10.33;87.18;97717.88;1763912;80;21089;-85
2021/03/31 04:56:20;;;;;;;26.35;19.70;;;;;;;10.46;86.28;97711.39;1762564;80;21518;-85
2021/03/31 04:58:46;;;;;;;26.07;18.40;;;;;;;10.59;85.86;97713.12;1769150;80;21133;-85
2021/03/31 05:01:13;;;;;;;24.35;18.15;;;;;;;10.74;85.39;97701.05;1763949;80;21164;-85
2021/03/31 05:03:40;;;;;;;27.37;18.40;;;;;;;10.98;85.20;97706.30;1795418;79;21145;-85
2021/03/31 05:06:07;;;;;;;25.70;18.85;;;;;;;11.26;84.40;97708.63;1797373;79;21165;-85
2021/03/31 05:08:34;;;;;;;25.35;18.80;;;;;;;11.63;84.34;97710.96;1776485;79;21080;-85
2021/03/31 05:11:02;;;;;;;20.52;15.38;;;;;;;12.01;84.01;97707.19;1774672;79;21155;-85
2021/03/31 05:13:29;;;;;;;23.92;17.25;;;;;;;12.57;83.15;97708.67;1771227;79;21518;-86
2021/03/31 05:15:56;;;;;;;25.10;16.82;;;;;;;13.01;82.77;97700.45;1773748;79;21463;-85
2021/03/31 05:18:23;;;;;;;23.95;17.10;;;;;;;13.58;82.26;97706.00;1779939;79;21459;-85
2021/03/31 05:20:50;;;;;;;25.10;17.87;;;;;;;13.99;79.56;97711.21;1782533;79;21531;-85
2021/03/31 05:23:16;;;;;;;22.93;16.32;;;;;;;14.31;78.12;97712.13;1796816;79;21477;-85
2021/03/31 05:25:44;;;;;;;21.87;16.17;;;;;;;14.70;77.73;97713.53;1791460;79;21108;-84
2021/03/31 05:28:10;;;;;;;21.33;16.12;;;;;;;15.01;76.83;97710.63;1801858;79;21495;-86
2021/03/31 05:30:37;;;;;;;19.55;14.55;;;;;;;15.43;75.73;97713.46;1778904;79;21076;-86
2021/03/31 05:33:05;;;;;;;19.20;14.55;;;;;;;15.90;74.28;97710.58;1774526;79;21154;-86
2021/03/31 05:35:33;;;;;;;19.67;14.28;;;;;;;16.15;73.06;97712.70;1772455;79;21134;-83
2021/03/31 05:38:00;;;;;;;20.85;14.55;;;;;;;16.45;71.92;97723.55;1789670;79;21146;-84
2021/03/31 05:40:31;;;;;;;18.92;15.38;;;;;;;16.70;69.90;97721.09;1776331;79;21145;-84
2021/03/31 05:42:57;;;;;;;19.32;15.53;;;;;;;16.97;70.52;97716.41;1788093;79;21115;-84
2021/03/31 05:45:27;;;;;;;20.62;14.50;;;;;;;17.38;69.69;97715.98;1775991;79;21114;-84
2021/03/31 05:47:55;;;;;;;17.63;13.87;;;;;;;18.13;69.22;97721.57;1775702;79;21513;-84
2021/03/31 05:50:22;;;;;;;19.02;13.75;;;;;;;18.55;67.00;97715.59;1784769;79;21853;-84
2021/03/31 05:52:49;;;;;;;16.10;12.45;;;;;;;18.86;66.74;97715.71;1780067;79;21118;-84
2021/03/31 05:55:18;;;;;;;16.70;12.90;;;;;;;19.34;64.91;97714.56;1786753;79;21140;-84
2021/03/31 05:57:46;;;;;;;15.60;12.55;;;;;;;19.87;65.58;97704.32;1769599;79;21115;-84
2021/03/31 06:00:20;;;;;;;19.10;14.35;;;;;;;20.29;61.64;97699.36;1780084;79;21072;-85
2021/03/31 06:02:49;;;;;;;15.08;12.40;;;;;;;20.49;62.57;97702.81;1773918;79;21474;-85
2021/03/31 06:05:18;;;;;;;17.40;14.03;;;;;;;20.94;61.25;97698.45;1712618;83;21159;-85
2021/03/31 06:07:49;;;;;;;17.40;14.47;;;;;;;21.34;61.03;97697.71;1714509;82;21118;-86
2021/03/31 06:10:20;;;;;;;18.75;14.23;;;;;;;21.69;59.62;97701.67;1709059;83;21114;-86
2021/03/31 06:13:00;;;;;;;17.42;14.47;;;;;;;22.08;58.69;97701.34;1698598;83;21160;-86
2021/03/31 06:15:42;;;;;;;20.52;15.05;;;;;;;22.05;55.68;97697.94;1737666;82;21118;-86
2021/03/31 06:18:16;;;;;;;17.73;14.43;;;;;;;21.97;55.24;97698.77;1714478;82;21195;-85
2021/03/31 06:21:00;;;;;;;15.98;13.50;;;;;;;22.07;53.64;97695.70;1701541;82;21129;-86
2021/03/31 06:23:53;;;;;;;20.02;14.60;;;;;;;22.14;52.52;97681.70;1698848;83;21112;-85
2021/03/31 06:26:36;;;;;;;18.82;14.53;;;;;;;22.47;53.28;97699.36;1694648;83;21100;-85
2021/03/31 06:29:07;;;;;;;18.87;13.80;;;;;;;22.66;51.66;97701.59;1707079;84;21505;-86
2021/03/31 06:31:39;;;;;;;21.62;14.35;;;;;;;22.74;51.15;97698.83;1703079;82;21118;-86
2021/03/31 06:34:15;;;;;;;17.52;14.47;;;;;;;22.91;50.56;97695.22;1734879;81;21499;-86
2021/03/31 06:36:51;;;;;;;17.07;14.25;;;;;;;23.18;49.50;97700.61;1709159;82;21148;-86
2021/03/31 06:39:32;;;;;;;16.42;13.32;;;;;;;23.38;49.14;97697.64;1703282;82;21148;-86
2021/03/31 06:42:09;;;;;;;15.88;13.15;;;;;;;23.43;47.50;97694.71;1694577;82;21250;-86
2021/03/31 06:44:55;;;;;;;16.05;13.13;;;;;;;23.72;49.33;97695.12;1702021;82;21498;-86
2021/03/31 06:47:26;;;;;;;17.10;13.18;;;;;;;23.97;47.11;97690.52;1736060;81;21143;-87
2021/03/31 06:49:55;;;;;;;17.95;12.88;;;;;;;23.96;44.30;97696.50;1744782;81;21483;-86
2021/03/31 06:52:23;;;;;;;14.28;12.47;;;;;;;24.20;45.91;97688.91;1741135;81;21166;-86
2021/03/31 06:54:58;;;;;;;19.48;15.32;;;;;;;24.69;45.83;97684.78;1737187;81;21471;-86
2021/03/31 06:57:31;;;;;;;15.15;13.10;;;;;;;24.76;45.06;97682.25;1734736;82;21126;-86
2021/03/31 07:00:14;;;;;;;16.67;13.48;;;;;;;24.96;44.78;97684.57;1729268;81;21165;-84
2021/03/31 07:02:45;;;;;;;13.83;10.75;;;;;;;25.14;43.81;97676.94;1696771;82;21494;-86
2021/03/31 07:05:14;;;;;;;17.70;14.25;;;;;;;25.52;42.65;97679.09;1728026;81;21594;-86
2021/03/31 07:07:42;;;;;;;18.77;13.63;;;;;;;25.95;43.57;97682.31;1758830;80;21157;-86
2021/03/31 07:10:14;;;;;;;16.48;13.93;;;;;;;26.03;42.58;97682.68;1754588;80;21500;-86
2021/03/31 07:12:46;;;;;;;17.55;13.70;;;;;;;26.14;42.39;97687.02;1759451;80;21137;-85
2021/03/31 07:15:20;;;;;;;15.98;12.85;;;;;;;25.93;41.00;97690.61;1766584;80;21141;-86
2021/03/31 07:17:53;;;;;;;15.85;12.78;;;;;;;26.42;43.15;97690.19;1761232;80;21183;-86
2021/03/31 07:20:20;;;;;;;15.88;12.90;;;;;;;27.08;40.76;97695.47;1757349;80;21120;-86
2021/03/31 07:22:48;;;;;;;14.18;11.38;;;;;;;27.33;38.94;97701.97;1761297;80;21485;-86
2021/03/31 07:25:17;;;;;;;16.85;13.83;;;;;;;27.49;39.59;97693.91;1761188;80;21121;-86
2021/03/31 07:27:47;;;;;;;18.00;13.32;;;;;;;28.16;41.91;97690.73;1744172;80;21146;-86
2021/03/31 07:30:22;;;;;;;14.75;13.10;;;;;;;29.10;40.79;97683.98;1766557;80;21121;-86
2021/03/31 07:33:12;;;;;;;14.33;12.03;;;;;;;29.95;38.93;97684.02;1761276;80;21132;-86
2021/03/31 07:35:39;;;;;;;;;;;;;;;29.76;37.51;97680.38;1767646;80;21116;-85
2021/03/31 07:38:07;;;;;;;17.45;13.45;;;;;;;29.69;36.28;97680.88;1757265;80;20343;-86
2021/03/31 07:40:37;;;;;;;14.85;13.28;;;;;;;29.87;38.33;97676.36;1786352;80;21121;-86
2021/03/31 07:43:38;;;;;;;15.58;12.85;;;;;;;30.80;38.80;97676.36;1761086;80;21469;-86
2021/03/31 07:46:20;;;;;;;14.20;12.53;;;;;;;32.05;37.42;97676.00;1760637;81;21089;-87
2021/03/31 07:48:48;;;;;;;13.65;12.25;;;;;;;32.90;35.48;97675.03;1715104;81;21136;-86
2021/03/31 07:51:26;;;;;;;17.23;12.68;;;;;;;32.98;36.25;97664.80;1766752;80;21089;-86
2021/03/31 07:53:58;;;;;;;15.43;12.45;;;;;;;32.72;30.41;97670.96;1760415;80;21143;-86
2021/03/31 07:56:39;;;;;;;16.35;13.28;;;;;;;32.01;32.35;97667.00;1746472;80;21485;-86
2021/03/31 07:59:11;;;;;;;15.83;12.78;;;;;;;32.37;34.89;97671.06;1768106;80;21482;-86
2021/03/31 08:01:54;;;;;;;15.48;12.05;;;;;;;32.85;29.46;97665.84;1767966;80;21533;-86
2021/03/31 08:04:24;;;;;;;14.35;12.58;;;;;;;32.38;30.51;97663.83;1779130;80;21139;-86
2021/03/31 08:06:55;;;;;;;14.28;12.78;;;;;;;32.15;30.89;97659.34;1781528;79;21154;-86
2021/03/31 08:09:30;;;;;;;14.70;12.88;;;;;;;32.34;32.34;97665.00;1780413;79;21416;-86
2021/03/31 08:12:05;;;;;;;17.17;13.15;;;;;;;33.04;32.01;97661.22;1782192;79;21134;-86
2021/03/31 08:14:37;;;;;;;13.65;12.20;;;;;;;33.82;32.47;97661.30;1773752;79;21119;-86
2021/03/31 08:17:11;;;;;;;16.27;13.72;;;;;;;33.94;29.83;97661.42;1770345;79;21475;-86
2021/03/31 08:19:48;;;;;;;14.28;11.63;;;;;;;33.58;31.88;97656.19;1787096;79;21117;-86
2021/03/31 08:22:35;;;;;;;13.65;11.75;;;;;;;33.90;28.70;97655.16;1783034;79;21490;-86
2021/03/31 08:25:19;;;;;;;15.05;12.75;;;;;;;33.51;30.15;97645.84;1790628;79;21517;-87
2021/03/31 08:28:04;;;;;;;15.98;11.90;;;;;;;33.79;31.35;97655.84;1720934;81;21122;-87
2021/03/31 08:30:36;;;;;;;14.43;12.37;;;;;;;34.46;28.54;97649.69;1744295;81;21515;-87
2021/03/31 08:33:06;;;;;;;14.50;12.82;;;;;;;33.95;28.75;97650.61;1755256;81;21493;-87
2021/03/31 08:35:36;;;;;;;15.72;11.63;;;;;;;32.87;26.22;97644.84;1786786;79;21183;-87
2021/03/31 08:38:06;;;;;;;;;;;;;;;32.11;27.94;97655.23;1771141;79;21116;-87
2021/03/31 08:40:35;;;;;;;15.63;12.30;;;;;;;30.38;27.49;97644.07;1778703;79;20158;-87
2021/03/31 08:43:04;;;;;;;18.23;11.50;;;;;;;29.10;30.33;97639.72;1778062;79;21142;-87
2021/03/31 08:45:39;;;;;;;17.35;11.50;;;;;;;29.70;31.66;97634.06;1790939;79;21164;-87
2021/03/31 08:48:09;;;;;;;13.72;9.55;;;;;;;30.35;31.70;97632.53;1792464;79;21103;-85
2021/03/31 08:50:40;;;;;;;;;;;;;;;31.17;30.94;97630.89;1801446;79;21279;-86
2021/03/31 08:53:10;;;;;;;16.65;11.35;;;;;;;30.99;31.50;97634.19;1790934;79;20141;-85
2021/03/31 08:55:41;;;;;;;14.70;10.35;;;;;;;30.98;31.91;97633.98;1773843;79;21494;-85
2021/03/31 08:58:11;;;;;;;19.05;11.63;;;;;;;31.37;32.49;97628.58;1779158;79;21107;-85
2021/03/31 09:00:51;;;;;;;15.58;9.70;;;;;;;31.26;31.92;97625.86;1781795;79;21118;-86
2021/03/31 09:03:20;;;;;;;15.80;10.65;;;;;;;29.91;29.79;97621.70;1787670;79;21132;-86
2021/03/31 09:05:58;;;;;;;18.42;11.53;;;;;;;28.94;32.65;97616.73;1789900;80;21185;-87
2021/03/31 09:08:27;;;;;;;12.78;8.98;;;;;;;28.08;33.02;97618.16;1762426;80;21149;-87
2021/03/31 09:10:58;;;;;;;15.72;10.60;;;;;;;27.66;33.72;97617.73;1767103;80;21129;-87
2021/03/31 09:13:36;;;;;;;17.17;10.90;;;;;;;26.90;34.17;97609.95;1756534;80;21263;-87
2021/03/31 09:16:11;;;;;;;14.30;9.50;;;;;;;26.03;35.13;97613.95;1776264;81;21313;-85
2021/03/31 09:18:43;;;;;;;14.60;9.50;;;;;;;24.91;36.36;97609.41;1784498;80;21103;-85
2021/03/31 09:21:13;;;;;;;16.48;10.35;;;;;;;24.15;37.37;97608.42;1779270;80;21108;-87
2021/03/31 09:23:47;;;;;;;16.40;9.23;;;;;;;23.82;38.09;97605.33;1755440;80;21512;-87
2021/03/31 09:26:14;;;;;;;15.83;9.65;;;;;;;23.29;38.16;97603.59;1760074;80;21107;-86
2021/03/31 09:28:41;;;;;;;14.73;10.13;;;;;;;22.81;39.96;97611.80;1747239;80;21099;-87
2021/03/31 09:31:20;;;;;;;15.18;9.55;;;;;;;22.50;40.11;97600.84;1767146;80;21153;-87
2021/03/31 09:33:44;;;;;;;12.80;7.40;;;;;;;22.07;41.05;97602.53;1767228;80;21159;-88
2021/03/31 09:36:17;;;;;;;13.72;8.83;;;;;;;21.91;41.90;97599.59;1735265;80;21164;-86
2021/03/31 09:38:45;;;;;;;13.35;8.55;;;;;;;21.85;42.08;97595.52;1768214;80;21509;-86
2021/03/31 09:41:13;;;;;;;13.10;8.03;;;;;;;21.37;43.17;97597.81;1775714;80;21133;-86
2021/03/31 09:43:42;;;;;;;12.78;8.30;;;;;;;21.16;43.87;97589.06;1766992;80;21129;-86
2021/03/31 09:46:10;;;;;;;14.28;9.03;;;;;;;21.07;45.06;97590.98;1752421;80;21474;-86
2021/03/31 09:48:37;;;;;;;16.15;9.73;;;;;;;21.27;45.08;97590.33;1771488;80;21123;-86
2021/03/31 09:51:13;;;;;;;13.98;9.05;;;;;;;21.33;44.59;97598.47;1767805;80;21133;-86
2021/03/31 09:53:43;;;;;;;12.03;8.58;;;;;;;21.40;45.01;97585.84;1775247;80;21498;-86
2021/03/31 09:56:12;;;;;;;12.93;8.65;;;;;;;21.38;44.04;97587.25;1767109;80;21117;-86
2021/03/31 09:58:42;;;;;;;12.03;8.35;;;;;;;20.96;45.08;97580.31;1767913;80;21155;-86
2021/03/31 10:01:15;;;;;;;11.25;7.67;;;;;;;21.04;46.10;97572.77;1767618;80;21136;-86
2021/03/31 10:03:45;;;;;;;14.07;8.75;;;;;;;21.31;46.52;97574.28;1773785;80;21091;-87
2021/03/31 10:06:25;;;;;;;11.93;7.85;;;;;;;21.31;46.14;97573.73;1794814;80;21228;-87
2021/03/31 10:08:53;;;;;;;8.08;5.55;;;;;;;21.34;45.92;97570.37;1780294;80;21111;-87
2021/03/31 10:11:36;;;;;;;11.60;8.35;;;;;;;21.40;45.97;97582.35;1745184;81;21131;-87
2021/03/31 10:14:05;;;;;;;14.05;8.30;;;;;;;21.30;46.11;97573.49;1770314;80;21125;-87
2021/03/31 10:16:40;;;;;;;10.95;7.70;;;;;;;21.48;46.47;97568.02;1771900;80;21115;-87
2021/03/31 10:19:10;;;;;;;9.40;5.53;;;;;;;21.61;45.98;97562.38;1748959;80;21483;-87
2021/03/31 10:21:38;;;;;;;12.53;6.95;;;;;;;21.82;45.23;97568.39;1770189;80;21486;-87
2021/03/31 10:24:07;;;;;;;10.35;6.92;;;;;;;21.45;45.34;97559.23;1770274;80;21149;-88
2021/03/31 10:26:38;;;;;;;12.82;7.22;;;;;;;21.35;46.22;97563.07;1774266;80;21240;-88
2021/03/31 10:29:24;;;;;;;16.32;9.55;;;;;;;21.36;46.08;97559.25;1786416;80;21467;-85
2021/03/31 10:31:54;;;;;;;14.73;9.23;;;;;;;21.57;46.83;97558.77;1760899;81;21471;-87
2021/03/31 10:34:21;;;;;;;15.65;9.05;;;;;;;21.91;47.16;97555.05;1759398;80;21128;-87
2021/03/31 10:37:04;;;;;;;15.05;9.48;;;;;;;21.95;46.47;97549.77;1759983;80;21260;-87
2021/03/31 10:40:18;;;;;;;11.70;7.97;;;;;;;21.91;46.92;97549.64;1780043;80;21135;-87
2021/03/31 10:48:52;;;;;;;14.07;8.33;;;;;;;22.23;47.14;97528.45;1765266;80;21126;-87
2021/03/31 10:51:19;;;;;;;8.95;6.40;;;;;;;22.33;45.81;97533.45;1769403;80;21515;-88
2021/03/31 10:53:52;;;;;;;12.03;7.37;;;;;;;22.26;45.54;97532.42;1773946;80;21147;-88
2021/03/31 10:56:18;;;;;;;9.73;7.28;;;;;;;21.91;45.43;97534.80;1765916;81;21130;-87
2021/03/31 10:58:45;;;;;;;15.68;8.03;;;;;;;21.76;46.72;97531.33;1766078;80;21121;-88
2021/03/31 11:01:12;;;;;;;13.40;7.10;;;;;;;21.64;45.82;97526.64;1771903;80;21164;-88
2021/03/31 11:03:40;;;;;;;11.95;8.65;;;;;;;21.54;46.32;97533.00;1774076;80;21134;-87
2021/03/31 11:06:08;;;;;;;9.03;6.00;;;;;;;21.58;47.77;97523.13;1771726;80;21163;-88
2021/03/31 11:08:35;;;;;;;15.15;8.70;;;;;;;21.94;47.45;97514.44;1768320;80;21121;-88
2021/03/31 11:11:09;;;;;;;12.20;7.67;;;;;;;22.15;47.68;97513.12;1770026;80;21232;-88
2021/03/31 11:13:34;;;;;;;12.35;8.43;;;;;;;22.40;47.43;97517.50;1765784;80;21130;-88
2021/03/31 11:16:06;;;;;;;11.73;7.85;;;;;;;22.62;47.61;97512.83;1767451;80;21165;-88
2021/03/31 11:18:39;;;;;;;13.10;7.30;;;;;;;22.79;47.34;97506.66;1766479;80;21196;-88
2021/03/31 11:21:16;;;;;;;11.70;6.80;;;;;;;22.45;44.87;97511.09;1770465;79;21188;-88
2021/03/31 11:26:21;;;;;;;9.33;5.97;;;;;;;21.66;46.70;97508.77;1767932;80;21149;-88
2021/03/31 11:28:48;;;;;;;9.55;6.22;;;;;;;21.88;45.96;97504.97;1770446;80;21236;-88
2021/03/31 11:31:15;;;;;;;10.48;5.90;;;;;;;22.00;46.26;97503.69;1766869;80;21152;-87
2021/03/31 11:33:42;;;;;;;8.43;5.97;;;;;;;22.16;46.44;97501.98;1771491;80;21134;-87
2021/03/31 11:36:10;;;;;;;9.53;5.65;;;;;;;22.14;45.17;97502.09;1766633;80;21142;-87
2021/03/31 11:38:37;;;;;;;9.53;5.55;;;;;;;21.83;45.47;97496.52;1757136;80;21103;-87
2021/03/31 11:41:07;;;;;;;12.05;7.47;;;;;;;21.69;46.48;97490.59;1762127;80;21482;-87
2021/03/31 11:43:35;;;;;;;10.13;6.05;;;;;;;21.62;46.48;97493.01;1757859;80;21142;-87
2021/03/31 11:46:02;;;;;;;10.45;6.80;;;;;;;21.43;46.38;97484.02;1763696;80;21163;-88
2021/03/31 11:48:29;;;;;;;13.55;6.87;;;;;;;21.27;46.54;97483.80;1772584;80;21123;-88
2021/03/31 11:50:56;;;;;;;9.68;6.12;;;;;;;21.12;46.33;97480.84;1769120;80;21489;-87
2021/03/31 11:53:28;;;;;;;7.28;5.12;;;;;;;20.96;47.53;97473.27;1742843;81;21130;-87
2021/03/31 11:55:52;;;;;;;10.82;5.33;;;;;;;20.84;47.32;97473.19;1768869;80;21125;-87